Evergreen, LA (71333)

7:45 PM CDT on September 19, 2014 (GMT -0500)
Indian Bayou Rd | Change Station
CLOSE
Current Station
Personal Weather Station
Location: Cottonport, LA
Elevation: 66 ft
Nearby Weather Stations

Elev 66 ft 30.98 °N, 92.06 °W | Updated 14 seconds ago

Clear
Clear
78.4 °F
Feels Like 81 °F
N
0.0
Wind Variable Wind from SE
Gusts 0.0 mph

Today
High -- | Low -- °F
--% Chance of Precip.
Yesterday
High -- | Low -- °F
Precip. -- in
6:54 AM 7:08 PM
Waning Crescent, 16% visible
Pressure 29.93 in
Visibility 10.0 miles
Clouds Scattered Clouds 4100 ft
Heat Index 81 °F
Dew Point 72 °F
Humidity 79%
Rainfall 0.00 in
Snow Depth Not available.
UV 0 out of 12
Pollen 10.00 out of 12
Air Quality Not available.
Flu Activity Not available.
METAR KOPL 200035Z AUTO 10003KT 10SM SCT041 26/22 A2993 RMK AO2 T02570216

More Conditions Fewer Conditions

Pressure 29.93 in
Visibility 10.0 miles
Clouds Scattered Clouds 4100 ft
Heat Index 81 °F
Dew Point 72 °F
Humidity 79%
Rainfall 0.00 in
Snow Depth Not available.
UV 0 out of 12
Pollen 10.00 out of 12
Air Quality Not available.
Flu Activity Not available.
METAR KOPL 200035Z AUTO 10003KT 10SM SCT041 26/22 A2993 RMK AO2 T02570216

More Conditions Fewer Conditions

10-Day Weather Forecast

Almanac

Astronomy

Sep. 19, 2014 Rise Set
Actual Time 6:54 AM CDT 7:08 PM CDT
Civil Twilight 6:30 AM CDT 7:32 PM CDT
Nautical Twilight 6:02 AM CDT 8:01 PM CDT
Astronomical Twilight 5:34 AM CDT 8:29 PM CDT
Moon 2:53 AM CDT (9/19) 4:26 PM CDT (9/19)
Length of Visible Light 13h 02m
Length of Day
12h 13m
Tomorrow will be 1m 52s shorter.
Waning Crescent, 16% of the Moon is Illuminated
Today
Waning Crescent
Sep 24
New
Oct 1
First Quarter
Oct 8
Full
Oct 15
Last Quarter

Today's Extremes

State Highs State Lows

Community

WunderPhotos

Upload Photos

1,754,744 photos uploaded!

WunderBlogs® & News

Nearby

Snow Depth

Station Depth Elevation
No new snow has been reported.

Earthquake Activity

City Distance Mag. Time & Date
No recent earthquake activity has been reported nearby.
Minimum magnitude displayed is 2.5.

Coastal Water Temperatures

Place Temperature
No Stations Reporting

Nearby Weather Stations